Time;durP1;ratioP1;P1;durP2;ratioP2;P2;SDS_P1;SDS_P2;PMS_P1;PMS_P2;Temp;Humidity;BMP_temperature;BMP_pressure;BME280_temperature;BME280_humidity;BME280_pressure;Samples;Min_cycle;Max_cycle;Signal;HPM_P1;HPM_P2
2024/03/10 00:02:00;;;;;;;27.30;14.70;;;;;;;-4.13;100.00;101065.91;106488;1256;67997;-85
2024/03/10 00:04:41;;;;;;;33.40;15.30;;;;;;;-4.11;100.00;101062.64;106494;1251;72674;-85
2024/03/10 00:07:21;;;;;;;29.50;14.00;;;;;;;-4.12;100.00;101061.81;106402;1253;61284;-86
2024/03/10 00:10:01;;;;;;;28.00;13.70;;;;;;;-4.13;100.00;101061.95;106344;1251;61255;-87
2024/03/10 00:12:41;;;;;;;32.20;14.30;;;;;;;-4.13;100.00;101061.77;106538;1251;74662;-86
2024/03/10 00:15:21;;;;;;;29.80;14.10;;;;;;;-4.10;100.00;101060.25;106504;1251;68578;-86
2024/03/10 00:17:54;;;;;;;32.20;14.60;;;;;;;-4.09;100.00;101056.54;106414;1256;71395;-86
2024/03/10 00:20:34;;;;;;;28.30;14.00;;;;;;;-4.09;100.00;101049.80;106561;1251;61317;-86
2024/03/10 00:23:14;;;;;;;31.00;14.00;;;;;;;-4.10;100.00;101052.23;106349;1253;61280;-85
2024/03/10 00:25:48;;;;;;;26.40;13.20;;;;;;;-4.12;100.00;101050.14;106658;1255;74703;-86
2024/03/10 00:28:22;;;;;;;31.60;13.40;;;;;;;-4.10;100.00;101049.23;106589;1251;68377;-86
2024/03/10 00:31:02;;;;;;;33.60;15.70;;;;;;;-4.08;100.00;101053.39;106567;1257;72517;-85
2024/03/10 00:33:44;;;;;;;28.90;13.70;;;;;;;-4.05;100.00;101052.90;106333;1253;61253;-88
2024/03/10 00:36:20;;;;;;;28.20;14.00;;;;;;;-4.04;100.00;101052.13;106504;1258;61101;-87
2024/03/10 00:38:53;;;;;;;28.60;13.30;;;;;;;-3.98;100.00;101050.17;106665;1253;74677;-87
2024/03/10 00:41:35;;;;;;;31.20;14.00;;;;;;;-3.92;100.00;101047.88;106502;1257;67135;-85
2024/03/10 00:44:15;;;;;;;29.50;14.80;;;;;;;-3.84;100.00;101051.33;106494;1253;72634;-85
2024/03/10 00:46:49;;;;;;;29.20;14.50;;;;;;;-3.78;100.00;101047.98;106706;1256;61344;-86
2024/03/10 00:49:23;;;;;;;27.20;13.50;;;;;;;-3.75;100.00;101047.88;106681;1251;61366;-88
2024/03/10 00:52:02;;;;;;;28.50;13.50;;;;;;;-3.72;100.00;101046.59;106587;1251;74699;-86
2024/03/10 00:54:42;;;;;;;27.90;12.80;;;;;;;-3.72;100.00;101044.41;106491;1254;68778;-88
2024/03/10 00:57:10;;;;;;;28.90;13.80;;;;;;;-3.72;100.00;101045.48;106496;1254;71482;-85
2024/03/10 00:59:51;;;;;;;30.40;13.70;;;;;;;-3.70;100.00;101044.58;106536;1253;61906;-88
2024/03/10 01:02:31;;;;;;;26.10;12.90;;;;;;;-3.69;100.00;101044.47;106473;1254;61435;-87
2024/03/10 01:05:12;;;;;;;24.70;12.50;;;;;;;-3.70;100.00;101044.61;106571;1253;73399;-86
2024/03/10 01:07:40;;;;;;;25.20;12.40;;;;;;;-3.80;100.00;101042.91;106733;1256;67976;-86
2024/03/10 01:10:20;;;;;;;26.60;12.40;;;;;;;-3.81;100.00;101043.14;106518;1251;72602;-87
2024/03/10 01:13:00;;;;;;;22.90;11.60;;;;;;;-3.78;100.00;101040.90;106668;1253;61222;-86
2024/03/10 01:15:34;;;;;;;25.70;13.00;;;;;;;-3.77;100.00;101039.99;106644;1253;63497;-86
2024/03/10 01:18:08;;;;;;;21.90;11.70;;;;;;;-3.71;100.00;101039.17;106544;1251;74576;-86
2024/03/10 01:20:48;;;;;;;24.80;12.40;;;;;;;-3.62;100.00;101038.48;106677;1252;68418;-86
2024/03/10 01:23:28;;;;;;;25.60;13.60;;;;;;;-3.51;100.00;101033.70;106585;1253;72779;-85
2024/03/10 01:26:02;;;;;;;23.60;11.70;;;;;;;-3.41;100.00;101031.39;106400;1252;61169;-86
2024/03/10 01:28:35;;;;;;;29.70;12.60;;;;;;;-3.36;100.00;101026.19;106501;1252;61283;-85
2024/03/10 01:31:17;;;;;;;22.50;12.70;;;;;;;-3.33;100.00;101028.11;106441;1251;74741;-88
2024/03/10 01:33:56;;;;;;;26.70;13.90;;;;;;;-3.23;100.00;101027.90;106339;1253;68711;-87
2024/03/10 01:36:30;;;;;;;27.40;13.60;;;;;;;-3.17;100.00;101026.00;106442;1253;73136;-88
2024/03/10 01:39:05;;;;;;;31.10;15.40;;;;;;;-3.04;100.00;101024.58;106597;1253;254682;-86
2024/03/10 01:41:45;;;;;;;29.60;13.70;;;;;;;-2.91;100.00;101023.94;106440;1251;61266;-85
2024/03/10 01:44:24;;;;;;;33.40;14.90;;;;;;;-2.84;100.00;101027.16;106480;1257;74641;-86
2024/03/10 01:46:58;;;;;;;27.90;13.50;;;;;;;-2.76;100.00;101024.88;106512;1253;68416;-87
2024/03/10 01:49:34;;;;;;;31.00;14.40;;;;;;;-2.67;100.00;101020.49;106370;1253;72306;-88
2024/03/10 01:52:14;;;;;;;26.40;14.60;;;;;;;-2.60;100.00;101014.23;106455;1253;61366;-87
2024/03/10 01:54:55;;;;;;;31.50;15.10;;;;;;;-2.55;100.00;101014.35;106853;1255;61253;-88
2024/03/10 01:57:29;;;;;;;27.30;14.20;;;;;;;-2.47;100.00;101014.83;106483;1251;73753;-85
2024/03/10 02:00:05;;;;;;;28.60;14.30;;;;;;;-2.41;100.00;101011.79;106538;1253;68697;-89
2024/03/10 02:02:50;;;;;;;30.80;14.50;;;;;;;-2.36;100.00;101014.55;106518;1253;72777;-88
2024/03/10 02:05:24;;;;;;;28.20;12.80;;;;;;;-2.30;100.00;101010.70;106330;1251;61247;-87
2024/03/10 02:07:59;;;;;;;25.90;11.70;;;;;;;-2.27;100.00;101006.08;106932;1253;61195;-88
2024/03/10 02:10:34;;;;;;;29.20;13.90;;;;;;;-2.22;100.00;101005.60;106499;1256;74634;-87
2024/03/10 02:13:14;;;;;;;30.10;14.60;;;;;;;-2.18;100.00;101003.89;106428;1253;68376;-85
2024/03/10 02:16:10;;;;;;;28.90;14.20;;;;;;;-2.17;100.00;101005.92;106451;1253;70409;-85
2024/03/10 02:18:51;;;;;;;31.50;15.20;;;;;;;-2.15;100.00;101005.70;106331;1251;61282;-85
2024/03/10 02:21:21;;;;;;;27.50;14.40;;;;;;;-2.14;100.00;101004.15;106605;1256;61468;-88
2024/03/10 02:24:27;;;;;;;24.80;13.40;;;;;;;-2.09;100.00;101003.39;106682;1257;74665;-87
2024/03/10 02:27:15;;;;;;;29.50;15.00;;;;;;;-2.03;100.00;100999.61;106445;1251;68822;-88
2024/03/10 02:47:12;;;;;;;27.30;13.30;;;;;;;-1.96;100.00;100999.48;106493;1253;61311;-85
2024/03/10 02:47:46;;;;;;;35.10;16.10;;;;;;;-1.92;100.00;101007.58;106257;1256;61346;-87
2024/03/10 02:50:21;;;;;;;34.00;15.40;;;;;;;-1.90;100.00;101005.58;106413;1252;61243;-87
2024/03/10 02:52:55;;;;;;;28.20;14.50;;;;;;;-1.88;100.00;101008.78;107054;1253;73433;-87
2024/03/10 02:55:35;;;;;;;30.20;14.00;;;;;;;-1.81;100.00;101011.98;106344;1253;69030;-88
2024/03/10 02:58:15;;;;;;;28.40;12.30;;;;;;;-1.79;100.00;101006.36;106486;1256;72663;-85
2024/03/10 03:00:49;;;;;;;26.70;12.60;;;;;;;-1.79;100.00;101009.45;106428;1252;61346;-85
2024/03/10 03:03:23;;;;;;;26.40;12.80;;;;;;;-1.77;100.00;101004.77;106569;1253;59199;-85
2024/03/10 03:06:03;;;;;;;26.60;13.10;;;;;;;-1.73;100.00;101006.48;106340;1258;74926;-88
2024/03/10 03:08:43;;;;;;;29.00;14.40;;;;;;;-1.75;100.00;101003.95;106533;1253;67149;-84
2024/03/10 03:11:17;;;;;;;29.70;13.40;;;;;;;-1.71;100.00;101001.31;106811;1252;72684;-84
2024/03/10 03:13:51;;;;;;;27.10;13.30;;;;;;;-1.65;100.00;100995.83;106373;1258;61357;-84
2024/03/10 03:16:32;;;;;;;26.90;12.90;;;;;;;-1.62;100.00;100990.50;106467;1251;61340;-88
2024/03/10 03:19:13;;;;;;;26.80;12.10;;;;;;;-1.56;100.00;100987.91;106339;1253;72404;-84
2024/03/10 03:21:47;;;;;;;25.00;12.30;;;;;;;-1.51;100.00;100985.69;106418;1253;68391;-89
2024/03/10 03:24:21;;;;;;;26.40;12.80;;;;;;;-1.45;100.00;100985.16;106399;1259;73131;-84
2024/03/10 03:27:02;;;;;;;21.50;11.60;;;;;;;-1.45;100.00;100981.07;106538;1253;61334;-88
2024/03/10 03:29:43;;;;;;;23.50;12.10;;;;;;;-1.36;100.00;100977.23;106627;1253;61263;-89
2024/03/10 03:32:17;;;;;;;24.20;13.20;;;;;;;-1.37;100.00;100972.71;106484;1256;74635;-84
2024/03/10 03:34:51;;;;;;;24.10;13.20;;;;;;;-1.32;100.00;100967.63;106463;1252;67627;-84
2024/03/10 03:37:31;;;;;;;25.10;13.10;;;;;;;-1.26;100.00;100966.20;106586;1251;72675;-84
2024/03/10 03:40:15;;;;;;;28.40;13.40;;;;;;;-1.23;100.00;100966.36;106334;1253;61325;-84
2024/03/10 03:42:48;;;;;;;25.80;13.40;;;;;;;-1.15;100.00;100961.29;106520;1251;61443;-84
2024/03/10 03:45:23;;;;;;;24.50;11.60;;;;;;;-1.12;100.00;100961.95;106878;1254;74649;-87
2024/03/10 03:48:04;;;;;;;30.30;13.60;;;;;;;-1.06;100.00;100955.68;106487;1256;67293;-84
2024/03/10 03:50:44;;;;;;;24.20;12.50;;;;;;;-1.01;100.00;100960.75;106566;1258;72697;-84
2024/03/10 03:53:19;;;;;;;30.90;13.40;;;;;;;-0.98;100.00;100958.05;106371;1253;61292;-88
2024/03/10 03:55:53;;;;;;;24.60;12.10;;;;;;;-0.97;100.00;100957.48;106668;1254;61337;-84
2024/03/10 03:58:34;;;;;;;24.50;11.80;;;;;;;-0.95;100.00;100957.71;106379;1253;73478;-88
2024/03/10 04:01:16;;;;;;;25.80;12.70;;;;;;;-0.90;100.00;100953.66;106472;1253;67346;-84
2024/03/10 04:03:50;;;;;;;26.60;13.30;;;;;;;-0.87;100.00;100957.38;106344;1256;72679;-84
2024/03/10 04:06:24;;;;;;;27.10;12.60;;;;;;;-0.87;100.00;100956.91;106249;1256;61713;-87
2024/03/10 04:09:04;;;;;;;24.70;12.80;;;;;;;-0.87;100.00;100959.10;106458;1257;61224;-84
2024/03/10 04:11:44;;;;;;;23.60;12.40;;;;;;;-0.90;100.00;100957.02;106541;1251;74630;-84
2024/03/10 04:14:18;;;;;;;23.90;13.20;;;;;;;-0.82;100.00;100956.67;106568;1257;67097;-88
2024/03/10 04:16:58;;;;;;;23.40;12.60;;;;;;;-0.78;100.00;100959.02;106364;1257;71355;-88
2024/03/10 04:19:38;;;;;;;26.90;12.40;;;;;;;-0.74;100.00;100962.07;106286;1253;61350;-87
2024/03/10 04:22:19;;;;;;;26.00;13.40;;;;;;;-0.66;100.00;100963.21;106510;1257;61378;-87
2024/03/10 04:24:59;;;;;;;27.60;13.80;;;;;;;-0.61;100.00;100964.33;106597;1251;74713;-84
2024/03/10 04:27:40;;;;;;;25.50;13.20;;;;;;;-0.56;100.00;100963.52;106641;1254;68396;-84
2024/03/10 04:30:22;;;;;;;21.20;12.50;;;;;;;-0.63;100.00;100966.09;106369;1254;72468;-84
2024/03/10 04:33:02;;;;;;;22.10;12.80;;;;;;;-0.57;100.00;100967.84;106350;1256;61192;-87
2024/03/10 04:35:43;;;;;;;24.10;12.30;;;;;;;-0.50;100.00;100967.77;106390;1251;61266;-87
2024/03/10 04:38:23;;;;;;;24.20;12.50;;;;;;;-0.43;100.00;100969.86;106414;1257;74575;-86
2024/03/10 04:41:05;;;;;;;23.50;11.90;;;;;;;-0.42;100.00;100970.11;106350;1251;68417;-84
2024/03/10 04:43:44;;;;;;;24.90;12.20;;;;;;;-0.39;100.00;100975.91;106324;1259;72662;-86
2024/03/10 04:46:25;;;;;;;25.50;13.10;;;;;;;-0.33;100.00;100972.91;106501;1254;61368;-86
2024/03/10 04:49:06;;;;;;;33.90;14.90;;;;;;;-0.30;100.00;100973.34;106475;1257;61199;-85
2024/03/10 04:51:46;;;;;;;33.30;16.90;;;;;;;-0.25;100.00;100973.42;106562;1256;74670;-83
2024/03/10 04:54:26;;;;;;;31.00;15.90;;;;;;;-0.20;100.00;100969.08;106459;1256;67254;-87
2024/03/10 04:57:06;;;;;;;35.10;15.90;;;;;;;-0.15;100.00;100969.31;106488;1257;72666;-84
2024/03/10 04:59:46;;;;;;;29.10;13.80;;;;;;;-0.08;100.00;100969.69;106255;1254;61188;-84
2024/03/10 05:02:26;;;;;;;26.00;13.60;;;;;;;-0.11;100.00;100970.63;106413;1251;61160;-84
2024/03/10 05:05:06;;;;;;;28.30;13.90;;;;;;;-0.02;100.00;100974.61;106489;1253;73095;-84
2024/03/10 05:07:50;;;;;;;26.40;12.80;;;;;;;0.03;100.00;100972.73;106482;1253;68335;-86
2024/03/10 05:10:31;;;;;;;24.70;13.00;;;;;;;0.14;100.00;100974.30;106525;1253;72624;-87
2024/03/10 05:13:11;;;;;;;28.60;13.80;;;;;;;0.22;100.00;100977.33;106565;1251;61270;-86
2024/03/10 05:15:50;;;;;;;26.30;13.70;;;;;;;0.28;100.00;100979.46;106261;1252;59260;-84
2024/03/10 05:18:34;;;;;;;26.20;14.30;;;;;;;0.27;100.00;100983.27;106486;1253;74649;-84
2024/03/10 05:21:13;;;;;;;30.10;13.90;;;;;;;0.35;100.00;100979.38;106414;1251;69726;-84
2024/03/10 05:23:53;;;;;;;32.40;15.30;;;;;;;0.47;100.00;100978.52;106457;1259;72718;-84
2024/03/10 05:26:33;;;;;;;32.10;15.70;;;;;;;0.57;100.00;100978.95;106462;1253;61280;-87
2024/03/10 05:29:13;;;;;;;33.20;16.20;;;;;;;0.64;100.00;100983.98;106625;1256;61280;-84
2024/03/10 05:31:53;;;;;;;30.70;16.30;;;;;;;0.71;100.00;100986.70;106470;1254;72494;-85
2024/03/10 05:34:35;;;;;;;29.40;15.70;;;;;;;0.77;100.00;100984.06;106278;1253;68539;-85
2024/03/10 05:37:15;;;;;;;28.90;14.60;;;;;;;0.86;100.00;100984.55;106601;1254;71434;-86
2024/03/10 05:39:55;;;;;;;27.90;14.40;;;;;;;0.97;100.00;100987.52;106533;1257;61264;-85
2024/03/10 05:42:35;;;;;;;33.60;18.40;;;;;;;1.02;100.00;100989.90;106588;1251;61155;-85
2024/03/10 05:45:16;;;;;;;39.20;20.00;;;;;;;1.09;100.00;100992.52;106454;1253;73412;-88
2024/03/10 05:47:57;;;;;;;39.50;19.40;;;;;;;1.13;100.00;100994.27;106495;1256;67198;-87
2024/03/10 05:50:37;;;;;;;38.10;18.20;;;;;;;1.20;100.00;100996.70;106340;1253;71484;-85
2024/03/10 05:53:17;;;;;;;39.10;21.30;;;;;;;1.30;100.00;100997.29;106448;1258;61238;-85
2024/03/10 05:55:58;;;;;;;42.80;21.60;;;;;;;1.35;100.00;100997.59;106580;1259;61162;-86
2024/03/10 05:58:39;;;;;;;62.80;26.10;;;;;;;1.40;100.00;101001.40;106380;1253;73386;-85
2024/03/10 06:01:23;;;;;;;57.10;26.60;;;;;;;1.52;100.00;101005.55;106317;1256;68723;-85
2024/03/10 06:04:04;;;;;;;52.40;24.80;;;;;;;1.49;100.00;101005.39;106274;1253;72798;-85
2024/03/10 06:06:44;;;;;;;43.40;21.90;;;;;;;1.65;100.00;101010.00;106612;1257;61321;-85
2024/03/10 06:09:27;;;;;;;32.70;17.40;;;;;;;1.73;100.00;101006.89;106546;1256;61231;-89
2024/03/10 06:12:08;;;;;;;30.60;17.50;;;;;;;1.82;100.00;101002.46;106470;1257;74585;-88
2024/03/10 06:14:48;;;;;;;33.10;18.00;;;;;;;1.98;100.00;101000.83;106623;1257;68341;-87
2024/03/10 06:17:33;;;;;;;32.20;16.60;;;;;;;2.08;100.00;100993.30;106650;1256;71160;-89
2024/03/10 06:26:12;;;;;;;29.60;18.00;;;;;;;2.36;100.00;100989.38;106355;1251;74665;-87
2024/03/10 06:28:53;;;;;;;31.20;17.90;;;;;;;2.43;100.00;100984.39;106320;1251;68347;-87
2024/03/10 06:31:33;;;;;;;30.40;15.60;;;;;;;2.55;100.00;100976.34;106514;1259;71343;-91
2024/03/10 06:34:13;;;;;;;31.80;18.90;;;;;;;2.73;100.00;100973.15;106302;1253;61598;-91
2024/03/10 06:36:54;;;;;;;30.20;17.30;;;;;;;2.88;100.00;100972.27;107150;1250;61215;-90
2024/03/10 06:39:34;;;;;;;31.70;17.10;;;;;;;3.08;100.00;100971.70;106433;1251;73373;-89
2024/03/10 06:42:14;;;;;;;38.20;19.70;;;;;;;3.24;100.00;100968.55;106454;1257;68736;-91
2024/03/10 06:44:54;;;;;;;36.30;20.50;;;;;;;3.29;100.00;100971.31;106284;1257;71395;-90
2024/03/10 06:47:34;;;;;;;48.80;25.20;;;;;;;3.40;100.00;100974.66;106350;1253;61312;-90
2024/03/10 06:50:15;;;;;;;39.40;19.80;;;;;;;3.46;100.00;100973.08;106527;1251;61435;-86
2024/03/10 06:52:56;;;;;;;35.90;19.20;;;;;;;3.66;100.00;100970.92;106651;1259;74632;-87
2024/03/10 06:55:36;;;;;;;40.70;20.00;;;;;;;3.87;100.00;100967.89;106550;1256;67148;-90
2024/03/10 06:58:17;;;;;;;40.50;20.60;;;;;;;4.09;100.00;100967.44;106546;1257;72485;-87
2024/03/10 07:00:58;;;;;;;34.90;16.90;;;;;;;4.41;100.00;100966.67;106485;1257;61240;-89
2024/03/10 07:03:39;;;;;;;32.50;14.10;;;;;;;4.68;100.00;100964.47;106607;1256;61244;-92
2024/03/10 07:06:21;;;;;;;21.40;10.80;;;;;;;4.83;100.00;100963.32;106535;1251;74728;-92
2024/03/10 07:09:01;;;;;;;20.90;9.00;;;;;;;5.11;100.00;100961.52;106500;1251;70095;-88
2024/03/10 07:11:42;;;;;;;20.10;9.30;;;;;;;5.42;100.00;100953.00;107037;1255;75170;-89
2024/03/10 07:14:22;;;;;;;15.80;7.00;;;;;;;5.88;100.00;100950.36;106666;1256;61129;-88
2024/03/10 07:17:02;;;;;;;11.80;5.80;;;;;;;6.29;100.00;100954.05;106521;1257;61275;-86
2024/03/10 07:19:45;;;;;;;44.60;9.60;;;;;;;6.65;100.00;100943.67;106699;1256;74682;-89
2024/03/10 07:22:25;;;;;;;10.10;5.30;;;;;;;6.88;98.35;100944.17;106490;1252;68327;-87
2024/03/10 07:25:05;;;;;;;11.30;6.00;;;;;;;7.16;91.43;100940.05;106422;1257;71934;-86
2024/03/10 07:27:45;;;;;;;11.90;6.00;;;;;;;7.43;84.25;100936.83;106408;1259;61216;-88
2024/03/10 07:30:25;;;;;;;9.90;6.00;;;;;;;7.66;80.87;100935.31;106310;1254;61315;-88
2024/03/10 07:33:05;;;;;;;11.70;5.70;;;;;;;7.82;74.80;100935.64;106453;1257;73410;-86
2024/03/10 07:35:45;;;;;;;12.30;5.80;;;;;;;7.95;70.85;100935.48;106592;1256;68387;-89
2024/03/10 07:38:25;;;;;;;12.10;5.80;;;;;;;8.10;69.17;100934.97;106538;1254;72671;-86
2024/03/10 07:41:05;;;;;;;14.60;6.50;;;;;;;8.30;67.19;100934.80;106569;1252;61271;-84
2024/03/10 07:43:47;;;;;;;12.30;5.90;;;;;;;8.50;65.00;100930.79;106684;1257;61159;-85
2024/03/10 07:46:27;;;;;;;11.30;5.90;;;;;;;8.71;62.69;100921.83;106863;1256;74630;-87
2024/03/10 11:48:18;;;;;;;12.40;7.00;;;;;;;13.71;36.29;100766.33;106631;1257;69782;-87
2024/03/10 11:50:48;;;;;;;17.10;8.00;;;;;;;13.67;36.69;100771.53;106929;1258;74680;-86
2024/03/10 11:53:28;;;;;;;14.00;8.30;;;;;;;13.57;36.72;100772.38;107788;1254;62677;-90
2024/03/10 11:56:09;;;;;;;12.40;7.20;;;;;;;13.50;36.91;100773.88;106336;1257;63573;-89
2024/03/10 11:58:52;;;;;;;16.30;8.20;;;;;;;13.46;37.03;100776.00;106840;1251;74668;-88
2024/03/10 12:01:21;;;;;;;13.80;7.70;;;;;;;13.32;37.18;100777.95;106286;1251;70948;-88
2024/03/10 12:04:05;;;;;;;15.80;8.60;;;;;;;13.29;36.96;100779.80;106318;1251;73782;-89
2024/03/10 12:06:46;;;;;;;16.60;8.90;;;;;;;13.35;36.84;100783.59;106446;1254;63242;-88
2024/03/10 12:09:26;;;;;;;16.60;7.80;;;;;;;13.37;37.03;100785.91;106251;1254;61963;-90
2024/03/10 12:12:11;;;;;;;14.20;8.10;;;;;;;13.32;36.54;100786.41;106174;1258;74612;-86
2024/03/10 12:14:48;;;;;;;14.80;7.00;;;;;;;13.33;35.69;100788.43;106381;1256;70735;-87
2024/03/10 12:17:28;;;;;;;13.70;7.20;;;;;;;13.25;35.89;100788.27;106703;1256;72222;-88
2024/03/10 12:20:12;;;;;;;12.90;7.10;;;;;;;13.10;36.40;100785.87;106981;1258;62090;-85
2024/03/10 12:22:49;;;;;;;16.20;7.60;;;;;;;13.07;36.87;100783.41;107043;1253;61155;-84
2024/03/10 12:25:23;;;;;;;12.50;7.10;;;;;;;13.09;36.69;100786.04;106866;1251;73410;-86
2024/03/10 12:28:08;;;;;;;16.50;7.70;;;;;;;13.01;36.29;100787.32;109327;1253;70328;-89
2024/03/10 12:30:49;;;;;;;14.40;7.50;;;;;;;12.96;37.01;100789.92;109081;1253;78090;-90
2024/03/10 12:33:29;;;;;;;13.80;7.70;;;;;;;12.98;37.27;100790.40;109239;1254;62275;-85
2024/03/10 12:35:58;;;;;;;15.30;6.80;;;;;;;12.98;37.04;100792.83;107893;1253;62151;-89
2024/03/10 12:38:39;;;;;;;13.60;7.00;;;;;;;12.92;37.03;100791.45;107214;1251;77273;-89
2024/03/10 12:41:23;;;;;;;13.20;7.50;;;;;;;12.88;36.96;100793.45;109352;1251;68362;-89
2024/03/10 12:44:03;;;;;;;14.00;7.10;;;;;;;12.91;37.26;100793.65;109206;1252;75184;-92
2024/03/10 12:46:33;;;;;;;13.60;6.70;;;;;;;12.90;37.33;100792.50;107901;1257;61236;-91
2024/03/10 12:49:13;;;;;;;16.40;7.90;;;;;;;12.79;37.59;100793.80;106641;1254;62812;-90
2024/03/10 12:51:53;;;;;;;11.30;6.40;;;;;;;12.79;38.05;100795.39;106575;1257;77000;-85
2024/03/10 12:54:33;;;;;;;18.50;7.00;;;;;;;12.77;38.29;100798.04;106501;1254;68540;-85
2024/03/10 12:57:01;;;;;;;13.20;7.40;;;;;;;12.61;38.16;100799.63;106385;1251;75593;-85
2024/03/10 12:59:41;;;;;;;12.60;7.30;;;;;;;12.48;37.99;100798.61;106385;1254;61351;-84
2024/03/10 13:02:22;;;;;;;15.30;7.30;;;;;;;12.43;38.71;100797.94;106291;1257;61311;-87
2024/03/10 13:05:03;;;;;;;21.40;8.10;;;;;;;12.42;38.67;100805.17;106441;1255;76130;-89
2024/03/10 13:07:31;;;;;;;13.90;7.80;;;;;;;12.47;38.58;100804.81;106438;1257;72693;-89
2024/03/10 13:10:11;;;;;;;21.20;8.10;;;;;;;12.53;38.54;100809.66;106450;1251;73850;-87
2024/03/10 13:12:51;;;;;;;15.60;8.70;;;;;;;12.46;38.57;100818.30;106316;1254;61344;-91
2024/03/10 13:15:31;;;;;;;16.30;9.10;;;;;;;12.32;38.63;100815.81;106281;1257;62476;-85
2024/03/10 13:17:59;;;;;;;15.20;8.20;;;;;;;12.17;38.76;100820.97;106746;1254;75696;-86
2024/03/10 13:20:39;;;;;;;16.40;9.40;;;;;;;12.05;39.16;100817.58;106507;1251;67164;-85
2024/03/10 13:23:19;;;;;;;16.70;9.10;;;;;;;11.94;39.65;100821.52;106314;1254;73844;-84
2024/03/10 13:26:00;;;;;;;19.70;10.60;;;;;;;11.89;39.68;100827.48;106692;1254;61353;-89
2024/03/10 13:28:28;;;;;;;18.70;9.80;;;;;;;11.83;40.10;100826.44;106400;1254;61244;-89
2024/03/10 13:31:09;;;;;;;20.10;10.90;;;;;;;11.78;40.32;100827.01;106614;1253;76603;-88
2024/03/10 13:33:50;;;;;;;24.80;13.00;;;;;;;11.80;40.49;100831.65;106541;1257;70344;-85
2024/03/10 13:36:30;;;;;;;27.10;14.30;;;;;;;11.78;40.46;100830.99;106186;1254;74691;-84
2024/03/10 13:38:58;;;;;;;27.10;11.70;;;;;;;11.75;41.12;100835.77;106184;1254;229951;-85
2024/03/10 13:41:38;;;;;;;18.10;9.70;;;;;;;11.60;41.01;100843.36;106571;1253;62627;-85
2024/03/10 13:44:19;;;;;;;14.60;8.70;;;;;;;11.46;41.62;100841.69;106513;1251;74467;-85
2024/03/10 13:46:59;;;;;;;16.80;8.80;;;;;;;11.34;41.98;100843.94;106432;1254;71402;-85
2024/03/10 13:49:28;;;;;;;19.60;9.70;;;;;;;11.21;42.65;100849.58;106568;1252;74131;-91
2024/03/10 13:52:07;;;;;;;17.10;9.20;;;;;;;11.11;42.55;100854.23;106878;1257;61344;-89
2024/03/10 13:54:50;;;;;;;16.50;8.90;;;;;;;11.00;42.55;100859.43;106479;1258;61814;-86
2024/03/10 13:57:30;;;;;;;18.70;10.40;;;;;;;10.88;42.65;100856.40;106463;1253;76800;-84
2024/03/10 13:59:58;;;;;;;16.20;9.00;;;;;;;10.73;43.10;100858.33;106867;1253;69340;-93
2024/03/10 14:02:41;;;;;;;15.90;8.40;;;;;;;10.68;43.05;100858.17;106513;1253;72674;-92
2024/03/10 14:05:15;;;;;;;16.20;8.80;;;;;;;10.62;43.25;100861.43;106485;1253;61335;-87
2024/03/10 14:07:55;;;;;;;14.70;8.60;;;;;;;10.60;42.97;100865.25;106585;1252;61187;-90
2024/03/10 14:10:23;;;;;;;18.10;9.40;;;;;;;10.54;42.87;100860.05;106615;1251;76933;-87
2024/03/10 14:12:57;;;;;;;17.80;9.50;;;;;;;10.48;43.34;100863.20;106306;1253;71443;-87
2024/03/10 14:15:40;;;;;;;21.90;10.70;;;;;;;10.39;43.93;100868.36;106339;1254;74841;-89
2024/03/10 14:18:14;;;;;;;19.00;11.20;;;;;;;10.32;44.35;100869.05;106962;1257;61292;-87
2024/03/10 14:20:48;;;;;;;22.30;12.10;;;;;;;10.20;44.86;100873.00;106406;1251;61190;-89
2024/03/10 14:23:31;;;;;;;24.80;10.90;;;;;;;10.15;45.29;100875.16;106466;1252;76538;-87
2024/03/10 14:26:05;;;;;;;20.50;10.00;;;;;;;10.08;45.65;100877.16;106597;1253;70178;-87
2024/03/10 14:28:39;;;;;;;16.40;9.70;;;;;;;9.98;46.11;100878.02;106465;1253;74573;-88
2024/03/10 14:31:13;;;;;;;21.30;10.70;;;;;;;9.91;46.01;100883.08;106348;1257;61253;-86
2024/03/10 14:33:48;;;;;;;20.00;10.10;;;;;;;9.87;46.54;100890.15;106363;1251;59888;-89
2024/03/10 14:36:30;;;;;;;20.80;10.80;;;;;;;9.80;46.82;100891.52;106454;1253;76766;-87
2024/03/10 14:39:12;;;;;;;;;;;;;;;9.71;47.05;100898.27;106501;1251;69978;-87
2024/03/10 14:41:43;;;;;;;21.30;10.70;;;;;;;9.64;47.29;100903.53;106415;1256;75050;-87
2024/03/10 14:44:23;;;;;;;16.80;9.80;;;;;;;9.55;47.60;100909.63;106535;1254;61117;-87
2024/03/10 14:46:57;;;;;;;18.70;10.80;;;;;;;9.35;48.06;100913.84;106512;1253;61330;-88
2024/03/10 14:49:36;;;;;;;20.80;11.90;;;;;;;9.33;48.52;100921.02;106644;1253;78353;-87
2024/03/10 14:52:11;;;;;;;18.70;10.20;;;;;;;9.30;48.97;100923.67;106561;1254;70740;-87
2024/03/10 14:54:38;;;;;;;17.90;10.60;;;;;;;9.21;48.76;100925.88;106529;1251;72955;-87
2024/03/10 14:57:18;;;;;;;19.70;10.40;;;;;;;9.08;48.63;100938.45;106467;1259;61154;-87
2024/03/10 14:59:59;;;;;;;22.10;10.70;;;;;;;9.02;49.52;100942.59;106454;1257;61148;-87
2024/03/10 15:02:34;;;;;;;28.10;13.90;;;;;;;8.91;50.23;100947.88;106470;1253;76106;-86
2024/03/10 15:05:14;;;;;;;18.10;8.50;;;;;;;8.76;50.65;100956.09;106405;1255;68410;-87
2024/03/10 15:07:47;;;;;;;18.40;8.40;;;;;;;8.59;51.06;100963.80;106384;1251;75839;-88
2024/03/10 15:10:16;;;;;;;24.60;9.10;;;;;;;8.45;51.60;100968.64;106374;1256;61411;-84
2024/03/10 15:12:50;;;;;;;18.90;8.20;;;;;;;8.35;51.80;100972.88;106548;1251;61312;-88
2024/03/10 15:15:18;;;;;;;21.80;8.70;;;;;;;8.26;52.19;100976.19;106598;1253;75282;-86
2024/03/10 15:17:58;;;;;;;19.90;9.30;;;;;;;8.18;52.70;100981.08;106591;1251;70464;-87
2024/03/10 15:20:46;;;;;;;23.00;11.70;;;;;;;8.06;53.56;100989.40;106885;1253;73759;-89
2024/03/10 15:23:22;;;;;;;22.80;10.00;;;;;;;7.87;54.90;100995.70;106894;1253;61523;-86
2024/03/10 15:26:04;;;;;;;18.10;8.60;;;;;;;7.68;55.69;101004.48;106816;1258;61019;-86
2024/03/10 15:28:47;;;;;;;15.40;8.20;;;;;;;7.50;56.62;101007.48;109320;1251;76731;-85
2024/03/10 15:31:15;;;;;;;17.20;7.90;;;;;;;7.35;57.72;101011.67;109269;1251;70613;-87
2024/03/10 15:33:49;;;;;;;19.30;9.80;;;;;;;7.20;58.86;101019.02;108983;1253;73777;-86
2024/03/10 15:36:26;;;;;;;24.00;11.10;;;;;;;7.03;59.64;101032.34;106590;1253;61877;-86
2024/03/10 15:39:06;;;;;;;16.00;7.90;;;;;;;6.97;59.92;101035.95;107510;1251;60988;-88
2024/03/10 15:41:41;;;;;;;17.40;7.90;;;;;;;6.82;60.69;101043.04;106687;1252;76051;-88
2024/03/10 15:44:15;;;;;;;20.20;9.90;;;;;;;6.73;61.21;101046.17;106596;1251;68664;-89
2024/03/10 15:46:56;;;;;;;16.10;7.60;;;;;;;6.70;61.52;101046.27;107269;1253;74841;-87
